createdAt,value
2023-03-02T00:04:46.640Z,100774.88
2023-03-02T00:10:48.965Z,100890.72
2023-03-02T00:16:54.260Z,100904.63
2023-03-02T00:23:00.887Z,100841.22
2023-03-02T00:29:04.368Z,100923.22
2023-03-02T00:35:11.825Z,100843.81
2023-03-02T00:41:15.304Z,100909.63
2023-03-02T00:47:20.114Z,100888.88
2023-03-02T00:53:22.259Z,100910.19
2023-03-02T00:59:27.707Z,100869.41
2023-03-02T01:05:33.160Z,100895.25
2023-03-02T01:11:35.648Z,100813.34
2023-03-02T01:17:45.160Z,100835.31
2023-03-02T01:23:47.574Z,100849.03
2023-03-02T01:29:52.098Z,100836.00
2023-03-02T01:35:58.423Z,100888.22
2023-03-02T01:42:03.554Z,100844.03
2023-03-02T01:48:05.549Z,100841.44
2023-03-02T01:54:23.211Z,100885.81
2023-03-02T02:00:32.773Z,100877.19
2023-03-02T02:06:45.059Z,100797.19
2023-03-02T02:12:49.352Z,100868.75
2023-03-02T02:18:56.009Z,100864.97
2023-03-02T02:25:05.490Z,100862.63
2023-03-02T02:31:58.268Z,100853.00
2023-03-02T02:38:06.608Z,100844.13
2023-03-02T02:44:17.092Z,100780.19
2023-03-02T02:50:24.590Z,100851.28
2023-03-02T02:56:42.081Z,100830.16
2023-03-02T03:02:49.586Z,100645.19
2023-03-02T03:09:05.086Z,100757.88
2023-03-02T03:15:12.532Z,100846.03
2023-03-02T03:21:15.019Z,100710.47
2023-03-02T03:27:17.474Z,100836.19
2023-03-02T03:33:19.958Z,100821.94
2023-03-02T03:39:22.446Z,100842.59
2023-03-02T03:45:24.932Z,100831.16
2023-03-02T03:51:28.398Z,100719.25
2023-03-02T03:57:38.342Z,100786.38
2023-03-02T04:03:41.309Z,100831.53
2023-03-02T04:09:49.004Z,100828.47
2023-03-02T04:15:56.988Z,100834.28
2023-03-02T04:22:02.768Z,100822.16
2023-03-02T04:28:14.288Z,100827.06
2023-03-02T04:34:28.264Z,100721.81
2023-03-02T04:40:34.241Z,100651.00
2023-03-02T04:46:36.822Z,100841.16
2023-03-02T04:52:40.156Z,100842.50
2023-03-02T04:58:51.891Z,100819.50
2023-03-02T05:04:57.327Z,100759.78
2023-03-02T05:11:14.360Z,100758.56
2023-03-02T05:17:18.151Z,100827.56
2023-03-02T05:23:36.427Z,100861.31
2023-03-02T05:29:39.185Z,100862.94
2023-03-02T05:35:51.711Z,100600.81
2023-03-02T05:41:54.119Z,100831.06
2023-03-02T05:48:06.680Z,100738.16
2023-03-02T05:54:15.753Z,100679.84
2023-03-02T06:00:19.606Z,100883.88
2023-03-02T06:06:34.383Z,100886.25
2023-03-02T06:12:41.814Z,100853.09
2023-03-02T06:18:48.046Z,100886.75
2023-03-02T06:25:02.008Z,100913.63
2023-03-02T06:31:05.055Z,100891.53
2023-03-02T06:37:16.584Z,100898.81
2023-03-02T06:43:20.884Z,100650.50
2023-03-02T06:49:23.542Z,100896.66
2023-03-02T06:55:29.003Z,100863.56
2023-03-02T07:01:36.717Z,100844.66
2023-03-02T07:07:39.998Z,100803.16
2023-03-02T07:13:48.230Z,100895.56
2023-03-02T07:19:56.488Z,100768.47
2023-03-02T07:26:04.926Z,100819.72
2023-03-02T07:32:12.446Z,100770.09
2023-03-02T07:38:15.375Z,100895.69
2023-03-02T07:44:17.819Z,100842.81
2023-03-02T07:50:22.657Z,100896.97
2023-03-02T07:56:25.756Z,100861.88
2023-03-02T08:02:32.243Z,100886.88
2023-03-02T08:08:37.705Z,100875.56
2023-03-02T08:14:43.352Z,100879.22
2023-03-02T08:20:45.642Z,100873.88
2023-03-02T08:26:48.100Z,100842.53
2023-03-02T08:32:50.656Z,100821.56
2023-03-02T08:38:53.043Z,100879.66
2023-03-02T08:44:55.542Z,100882.13
2023-03-02T08:51:15.012Z,100875.34
2023-03-02T08:57:18.258Z,100877.94
2023-03-02T09:03:21.970Z,100840.72
2023-03-02T09:09:24.421Z,100865.81
2023-03-02T09:15:26.278Z,100859.84
2023-03-02T09:21:29.497Z,100759.41
2023-03-02T09:27:31.820Z,100820.09
2023-03-02T09:33:36.288Z,100794.41
2023-03-02T09:39:39.841Z,100790.38
2023-03-02T09:46:13.120Z,100830.41
2023-03-02T09:52:30.921Z,100823.78
2023-03-02T09:58:38.351Z,100778.84
2023-03-02T10:04:50.918Z,100795.47
2023-03-02T10:11:13.161Z,100799.66
2023-03-02T10:17:34.953Z,100734.22
2023-03-02T10:23:47.440Z,100781.66
2023-03-02T10:30:06.987Z,100769.47
2023-03-02T10:36:40.554Z,100764.00
2023-03-02T10:42:42.973Z,100710.50
2023-03-02T10:48:58.494Z,100737.66
2023-03-02T10:55:14.092Z,100749.50
2023-03-02T11:01:20.467Z,100739.09
2023-03-02T11:07:24.939Z,100715.53
2023-03-02T11:13:31.439Z,100729.31
2023-03-02T11:19:39.917Z,100692.94
2023-03-02T11:25:49.404Z,100677.09
2023-03-02T11:32:39.111Z,100492.69
2023-03-02T11:40:08.046Z,100589.72
2023-03-02T11:45:47.322Z,100663.72
2023-03-02T11:52:02.860Z,100592.28
2023-03-02T11:58:47.742Z,100653.41
2023-03-02T12:04:49.842Z,100503.72
2023-03-02T12:11:03.510Z,100630.09
2023-03-02T12:17:28.914Z,100654.94
2023-03-02T12:23:33.425Z,100658.91
2023-03-02T12:29:45.861Z,100656.97
2023-03-02T12:36:00.386Z,100560.97
2023-03-02T12:42:34.051Z,100635.59
2023-03-02T12:48:57.600Z,100629.41
2023-03-02T12:55:21.078Z,100501.31
2023-03-02T13:01:41.772Z,100615.69
2023-03-02T13:08:32.350Z,100606.94
2023-03-02T13:14:35.715Z,100581.72
2023-03-02T13:20:39.203Z,100600.28
2023-03-02T13:26:41.066Z,100501.47
2023-03-02T13:32:45.469Z,100557.66
2023-03-02T13:38:59.017Z,100546.03
2023-03-02T13:45:29.209Z,100560.94
2023-03-02T13:51:40.662Z,100556.78
2023-03-02T13:57:48.158Z,100547.75
2023-03-02T14:03:50.641Z,100541.91
2023-03-02T14:09:56.518Z,100521.34
2023-03-02T14:15:59.584Z,100513.97
2023-03-02T14:22:02.971Z,100508.25
2023-03-02T14:28:07.441Z,100508.00
2023-03-02T14:34:16.938Z,100495.19
2023-03-02T14:40:29.588Z,100441.16
2023-03-02T14:46:36.096Z,100485.34
2023-03-02T14:53:11.321Z,100487.63
2023-03-02T14:59:24.032Z,100493.47
2023-03-02T15:05:29.548Z,100494.97
2023-03-02T15:11:32.684Z,100482.81
2023-03-02T15:17:38.519Z,100480.53
2023-03-02T15:23:40.954Z,100486.72
2023-03-02T15:29:48.451Z,100482.94
2023-03-02T15:35:55.644Z,100494.13
2023-03-02T15:41:58.381Z,100456.72
2023-03-02T15:48:00.826Z,100492.59
2023-03-02T15:54:15.608Z,100487.63
2023-03-02T16:00:30.629Z,100434.63
2023-03-02T16:06:34.983Z,100484.50
2023-03-02T16:12:37.771Z,100491.56
2023-03-02T16:18:40.234Z,100493.34
2023-03-02T16:24:51.011Z,100460.53
2023-03-02T16:31:06.876Z,100481.06
2023-03-02T16:37:09.782Z,100485.97
2023-03-02T16:43:13.137Z,100499.31
2023-03-02T16:49:20.628Z,100508.88
2023-03-02T16:55:27.342Z,100500.00
2023-03-02T17:01:30.565Z,100496.47
2023-03-02T17:07:40.275Z,100498.47
2023-03-02T17:13:42.471Z,100488.63
2023-03-02T17:19:46.944Z,100506.16
2023-03-02T17:25:50.678Z,100499.06
2023-03-02T17:31:53.951Z,100284.66
2023-03-02T17:38:04.363Z,100375.34
2023-03-02T17:44:19.763Z,100497.97
2023-03-02T17:57:00.648Z,100488.06
2023-03-02T18:03:33.161Z,100480.00
2023-03-02T18:09:44.935Z,100484.84
2023-03-02T18:16:12.871Z,100439.19
2023-03-02T18:22:30.826Z,100433.78
2023-03-02T18:28:35.904Z,100478.84
2023-03-02T18:34:42.895Z,100487.94
2023-03-02T18:40:52.156Z,100398.31
2023-03-02T18:47:05.911Z,100497.78
2023-03-02T18:54:00.771Z,100245.50
2023-03-02T19:00:31.645Z,100493.03
2023-03-02T19:06:50.225Z,100386.16
2023-03-02T19:13:10.229Z,100503.72
2023-03-02T19:25:44.124Z,100498.47
2023-03-02T19:31:54.165Z,100202.81
2023-03-02T19:38:14.220Z,100487.69
2023-03-02T19:44:32.269Z,100493.03
2023-03-02T19:50:44.309Z,100352.22
2023-03-02T19:57:01.531Z,100463.97
2023-03-02T20:03:29.324Z,100492.94
2023-03-02T20:16:02.870Z,100434.09
2023-03-02T20:22:21.796Z,100459.22
2023-03-02T20:28:53.277Z,100298.44
2023-03-02T20:35:02.683Z,100486.00
2023-03-02T20:41:33.031Z,100485.34
2023-03-02T20:48:01.161Z,100482.31
2023-03-02T20:54:12.777Z,100417.41
2023-03-02T21:00:22.015Z,100470.31
2023-03-02T21:06:30.240Z,100455.41
2023-03-02T21:12:35.448Z,100461.63
2023-03-02T21:19:03.193Z,100256.25
2023-03-02T21:25:13.977Z,100386.53
2023-03-02T21:32:03.387Z,100274.00
2023-03-02T21:38:07.713Z,100153.44
2023-03-02T21:50:51.965Z,100413.91
2023-03-02T21:57:04.315Z,100418.50
2023-03-02T22:03:31.509Z,100415.94
2023-03-02T22:09:43.549Z,100405.50
2023-03-02T22:16:21.110Z,100411.41
2023-03-02T22:22:40.911Z,100411.66
2023-03-02T22:35:43.881Z,100333.66
2023-03-02T22:48:23.037Z,100381.00
2023-03-02T22:54:45.785Z,100379.69
2023-03-02T23:01:11.605Z,100377.41
2023-03-02T23:13:52.489Z,100361.44
2023-03-02T23:19:54.465Z,100368.84
2023-03-02T23:26:13.158Z,100332.81
2023-03-02T23:32:43.752Z,100347.91
2023-03-02T23:38:53.034Z,100342.00
2023-03-02T23:45:02.335Z,100309.84
2023-03-02T23:51:35.597Z,100254.88
2023-03-02T23:57:33.708Z,100349.75
